createdAt,value
2018-09-01T00:04:19.479Z,7.97
2018-09-01T00:32:43.519Z,7.17
2018-09-01T01:18:22.246Z,11.27
2018-09-01T01:38:10.044Z,10.37
2018-09-01T01:40:49.339Z,7.23
2018-09-01T01:43:19.336Z,4.77
2018-09-01T02:03:05.816Z,7.13
2018-09-01T02:11:22.508Z,6.03
2018-09-01T02:39:46.942Z,8.63
2018-09-01T03:05:31.249Z,9.57
2018-09-01T03:08:03.855Z,7.67
2018-09-01T03:33:37.186Z,9.37
2018-09-01T03:50:42.744Z,7.97
2018-09-01T03:53:14.248Z,12.40
2018-09-01T04:33:10.897Z,14.27
2018-09-01T05:04:29.412Z,10.57
2018-09-01T05:33:08.239Z,13.13
2018-09-01T06:04:27.590Z,18.20
2018-09-01T06:35:34.488Z,19.60
2018-09-01T06:58:14.669Z,13.67
2018-09-01T07:00:46.512Z,12.00
2018-09-01T07:12:11.247Z,13.30
2018-09-01T07:14:42.948Z,11.67
2018-09-01T07:34:31.032Z,8.30
2018-09-01T08:11:32.898Z,7.70
2018-09-01T08:14:05.879Z,4.90
2018-09-01T08:16:37.630Z,3.17
2018-09-01T08:19:16.073Z,8.47
2018-09-01T08:21:47.485Z,7.13
2018-09-01T08:24:18.527Z,5.80
2018-09-01T08:26:49.858Z,9.10
2018-09-01T08:29:21.283Z,5.07
2018-09-01T08:31:52.754Z,5.97
2018-09-01T08:34:23.953Z,6.30
2018-09-01T08:36:54.598Z,4.57
2018-09-01T08:39:26.049Z,7.03
2018-09-01T08:41:58.816Z,6.97
2018-09-01T08:44:30.496Z,11.17
2018-09-01T08:47:01.786Z,7.37
2018-09-01T08:49:32.818Z,5.53
2018-09-01T08:52:04.446Z,3.90
2018-09-01T08:54:35.755Z,6.23
2018-09-01T08:57:09.019Z,5.27
2018-09-01T09:02:33.872Z,6.73
2018-09-01T09:05:06.228Z,6.00
2018-09-01T09:07:38.297Z,6.90
2018-09-01T09:10:10.418Z,5.80
2018-09-01T09:12:41.253Z,6.53
2018-09-01T09:15:12.996Z,6.00
2018-09-01T09:17:43.780Z,7.93
2018-09-01T09:20:14.516Z,6.73
2018-09-01T09:22:45.479Z,6.20
2018-09-01T09:25:16.219Z,7.30
2018-09-01T09:27:47.792Z,4.90
2018-09-01T09:30:19.341Z,3.50
2018-09-01T09:32:49.695Z,5.87
2018-09-01T09:35:21.479Z,4.07
2018-09-01T09:37:53.055Z,4.50
2018-09-01T09:40:23.901Z,5.30
2018-09-01T09:42:55.214Z,3.40
2018-09-01T09:45:26.336Z,5.77
2018-09-01T09:47:58.425Z,4.30
2018-09-01T09:50:30.327Z,4.50
2018-09-01T09:53:01.215Z,3.50
2018-09-01T09:55:31.934Z,3.47
2018-09-01T09:58:02.897Z,2.70
2018-09-01T10:00:39.269Z,6.10
2018-09-01T10:03:14.542Z,2.80
2018-09-01T10:05:45.915Z,4.03
2018-09-01T10:08:18.506Z,3.63
2018-09-01T10:10:49.744Z,3.87
2018-09-01T10:13:22.802Z,4.27
2018-09-01T10:15:53.806Z,7.47
2018-09-01T10:18:25.649Z,4.53
2018-09-01T10:20:57.153Z,3.33
2018-09-01T10:23:28.347Z,4.25
2018-09-01T10:25:59.683Z,5.20
2018-09-01T10:28:39.619Z,3.20
2018-09-01T10:31:11.833Z,2.53
2018-09-01T10:33:49.784Z,3.10
2018-09-01T10:36:23.015Z,3.50
2018-09-01T10:38:56.003Z,1.80
2018-09-01T10:41:29.067Z,2.03
2018-09-01T10:44:02.772Z,2.83
2018-09-01T10:46:36.148Z,2.30
2018-09-01T10:49:10.203Z,4.43
2018-09-01T10:51:42.634Z,2.30
2018-09-01T10:54:17.572Z,3.20
2018-09-01T10:56:47.578Z,3.53
2018-09-01T10:59:30.267Z,5.20
2018-09-01T11:02:02.376Z,1.50
2018-09-01T11:04:31.508Z,3.63
2018-09-01T11:07:12.621Z,2.60
2018-09-01T11:09:54.191Z,1.37
2018-09-01T11:12:28.012Z,1.37
2018-09-01T11:15:01.571Z,5.17
2018-09-01T11:17:36.791Z,5.00
2018-09-01T11:20:09.159Z,1.63
2018-09-01T11:22:44.998Z,7.13
2018-09-01T11:25:34.439Z,6.40
2018-09-01T11:28:07.521Z,2.97
2018-09-01T11:30:41.222Z,2.37
2018-09-01T11:33:20.164Z,3.40
2018-09-01T11:35:55.237Z,2.93
2018-09-01T11:38:29.839Z,3.13
2018-09-01T11:41:02.483Z,2.23
2018-09-01T11:43:35.597Z,3.77
2018-09-01T11:46:10.470Z,2.20
2018-09-01T11:48:45.406Z,3.10
2018-09-01T11:51:25.895Z,1.70
2018-09-01T11:53:58.359Z,2.70
2018-09-01T11:56:35.690Z,2.23
2018-09-01T11:59:06.943Z,2.30
2018-09-01T12:01:37.691Z,4.10
2018-09-01T12:04:09.637Z,3.33
2018-09-01T12:06:46.034Z,2.75
2018-09-01T12:09:17.089Z,3.22
2018-09-01T12:11:50.385Z,3.33
2018-09-01T12:14:22.879Z,4.43
2018-09-01T12:16:54.784Z,3.73
2018-09-01T12:19:36.719Z,2.73
2018-09-01T12:22:10.615Z,3.63
2018-09-01T12:24:41.768Z,2.93
2018-09-01T12:27:16.750Z,2.50
2018-09-01T12:29:54.358Z,3.23
2018-09-01T12:32:26.294Z,4.33
2018-09-01T12:35:00.325Z,3.47
2018-09-01T12:37:32.288Z,5.53
2018-09-01T12:40:06.145Z,2.17
2018-09-01T12:42:39.220Z,3.47
2018-09-01T12:45:15.132Z,3.00
2018-09-01T12:47:50.097Z,2.70
2018-09-01T12:50:22.771Z,3.03
2018-09-01T12:53:08.079Z,4.27
2018-09-01T12:55:46.228Z,2.37
2018-09-01T12:58:21.579Z,3.17
2018-09-01T13:01:00.504Z,4.47
2018-09-01T13:03:40.998Z,3.47
2018-09-01T13:06:15.023Z,3.17
2018-09-01T13:08:44.520Z,3.85
2018-09-01T13:11:13.616Z,3.40
2018-09-01T13:13:42.536Z,3.42
2018-09-01T13:16:12.344Z,2.52
2018-09-01T13:18:49.319Z,3.92
2018-09-01T13:21:18.102Z,3.77
2018-09-01T13:23:51.247Z,4.20
2018-09-01T13:26:24.839Z,2.52
2018-09-01T13:28:57.026Z,3.72
2018-09-01T13:36:48.275Z,3.12
2018-09-01T13:39:35.613Z,3.67
2018-09-01T13:42:09.211Z,4.55
2018-09-01T13:58:18.511Z,4.95
2018-09-01T14:00:49.052Z,3.72
2018-09-01T14:03:39.315Z,4.15
2018-09-01T14:06:10.272Z,2.87
2018-09-01T14:08:44.995Z,2.47
2018-09-01T14:11:16.642Z,2.55
2018-09-01T14:13:47.287Z,2.62
2018-09-01T14:16:18.055Z,2.85
2018-09-01T14:18:50.400Z,3.62
2018-09-01T14:21:21.924Z,3.12
2018-09-01T14:23:52.951Z,4.10
2018-09-01T14:26:38.122Z,3.27
2018-09-01T14:29:09.982Z,4.08
2018-09-01T14:31:46.660Z,3.60
2018-09-01T14:36:57.772Z,2.65
2018-09-01T14:39:39.155Z,4.20
2018-09-01T14:45:17.396Z,2.70
2018-09-01T14:47:49.674Z,3.75
2018-09-01T14:50:23.183Z,4.55
2018-09-01T14:52:54.273Z,3.12
2018-09-01T14:55:25.263Z,5.45
2018-09-01T14:57:56.140Z,3.33
2018-09-01T15:00:27.696Z,3.55
2018-09-01T15:02:58.275Z,2.80
2018-09-01T15:05:42.344Z,4.25
2018-09-01T15:08:13.642Z,2.95
2018-09-01T15:10:49.298Z,3.55
2018-09-01T15:13:23.805Z,4.15
2018-09-01T15:15:56.056Z,3.90
2018-09-01T15:18:28.428Z,4.03
2018-09-01T15:21:01.930Z,6.30
2018-09-01T15:23:37.516Z,5.10
2018-09-01T15:26:16.207Z,5.15
2018-09-01T15:28:48.031Z,4.40
2018-09-01T15:31:20.132Z,4.45
2018-09-01T15:33:54.847Z,4.58
2018-09-01T15:36:26.276Z,2.25
2018-09-01T15:39:06.432Z,5.15
2018-09-01T15:41:38.214Z,5.08
2018-09-01T15:44:15.613Z,3.75
2018-09-01T15:46:46.249Z,4.70
2018-09-01T15:49:20.249Z,4.28
2018-09-01T15:51:51.171Z,2.10
2018-09-01T15:54:23.456Z,3.90
2018-09-01T15:56:54.741Z,5.95
2018-09-01T15:59:26.388Z,5.65
2018-09-01T16:01:57.658Z,5.25
2018-09-01T16:04:33.760Z,3.52
2018-09-01T16:07:08.506Z,3.55
2018-09-01T16:09:39.347Z,5.45
2018-09-01T16:12:10.633Z,4.33
2018-09-01T16:14:46.442Z,7.08
2018-09-01T16:17:18.731Z,3.65
2018-09-01T16:19:50.198Z,6.60
2018-09-01T16:22:25.769Z,4.78
2018-09-01T16:25:00.288Z,4.50
2018-09-01T16:27:46.994Z,3.37
2018-09-01T16:30:27.134Z,4.65
2018-09-01T16:33:00.644Z,5.50
2018-09-01T16:35:35.705Z,5.60
2018-09-01T16:38:08.979Z,5.55
2018-09-01T16:40:51.307Z,5.17
2018-09-01T16:43:20.345Z,7.00
2018-09-01T16:45:57.694Z,5.77
2018-09-01T16:48:35.239Z,5.73
2018-09-01T16:51:06.503Z,6.20
2018-09-01T16:53:38.534Z,15.37
2018-09-01T16:56:10.058Z,22.10
2018-09-01T16:58:40.620Z,10.77
2018-09-01T17:04:42.187Z,3.37
2018-09-01T17:07:23.839Z,7.37
2018-09-01T17:09:55.009Z,5.30
2018-09-01T17:12:33.896Z,7.43
2018-09-01T17:15:03.784Z,6.00
2018-09-01T17:17:33.563Z,4.87
2018-09-01T17:20:02.324Z,4.60
2018-09-01T17:22:31.646Z,5.17
2018-09-01T17:25:00.338Z,3.17
2018-09-01T17:27:29.358Z,5.00
2018-09-01T17:29:58.118Z,5.67
2018-09-01T17:32:26.875Z,6.17
2018-09-01T17:34:57.910Z,8.23
2018-09-01T17:37:32.870Z,8.00
2018-09-01T17:40:03.477Z,3.83
2018-09-01T17:42:42.165Z,3.33
2018-09-01T17:45:11.098Z,3.40
2018-09-01T17:47:41.784Z,4.43
2018-09-01T17:50:12.958Z,4.70
2018-09-01T17:52:42.804Z,4.83
2018-09-01T17:55:12.833Z,5.17
2018-09-01T17:57:42.788Z,4.87
2018-09-01T18:00:13.360Z,4.37
2018-09-01T18:02:42.576Z,4.60
2018-09-01T18:05:13.199Z,8.70
2018-09-01T18:07:43.567Z,6.17
2018-09-01T18:10:14.390Z,6.17
2018-09-01T18:12:45.118Z,6.37
2018-09-01T18:15:15.905Z,5.83
2018-09-01T18:17:46.709Z,6.47
2018-09-01T18:20:17.215Z,5.33
2018-09-01T18:22:46.316Z,3.30
2018-09-01T18:25:15.553Z,7.20
2018-09-01T18:27:45.001Z,6.07
2018-09-01T18:30:14.309Z,7.07
2018-09-01T18:32:43.462Z,9.43
2018-09-01T18:35:13.773Z,11.40
2018-09-01T18:37:45.276Z,4.03
2018-09-01T18:40:15.779Z,4.20
2018-09-01T18:42:46.739Z,5.03
2018-09-01T18:45:15.560Z,6.40
2018-09-01T18:47:46.021Z,4.73
2018-09-01T18:50:16.831Z,3.13
2018-09-01T18:52:46.364Z,6.30
2018-09-01T18:55:16.966Z,4.80
2018-09-01T18:57:47.777Z,4.67
2018-09-01T19:00:18.155Z,4.63
2018-09-01T19:02:47.064Z,6.90
2018-09-01T19:05:21.318Z,8.03
2018-09-01T19:07:51.673Z,6.03
2018-09-01T19:10:22.925Z,4.83
2018-09-01T19:12:53.056Z,4.67
2018-09-01T19:15:23.982Z,7.00
2018-09-01T19:17:54.671Z,5.47
2018-09-01T19:20:24.788Z,6.67
2018-09-01T19:22:55.167Z,6.20
2018-09-01T19:25:25.310Z,8.63
2018-09-01T19:27:55.571Z,4.17
2018-09-01T19:30:25.972Z,6.93
2018-09-01T19:32:55.563Z,6.80
2018-09-01T19:35:25.014Z,4.23
2018-09-01T19:37:55.406Z,8.83
2018-09-01T19:40:26.784Z,8.43
2018-09-01T19:42:57.185Z,6.07
2018-09-01T19:45:28.330Z,4.10
2018-09-01T19:48:04.477Z,4.67
2018-09-01T19:50:36.741Z,5.80
2018-09-01T19:53:09.496Z,5.93
2018-09-01T19:55:40.852Z,7.67
2018-09-01T19:58:12.242Z,7.97
2018-09-01T20:00:44.451Z,5.63
2018-09-01T20:03:17.711Z,3.83
2018-09-01T20:05:47.042Z,6.70
2018-09-01T20:08:18.199Z,5.60
2018-09-01T20:10:53.468Z,8.40
2018-09-01T20:13:25.212Z,8.30
2018-09-01T20:15:54.308Z,5.53
2018-09-01T20:18:23.451Z,7.57
2018-09-01T20:20:55.458Z,4.43
2018-09-01T20:23:27.629Z,4.33
2018-09-01T20:25:58.427Z,5.47
2018-09-01T20:28:29.239Z,4.33
2018-09-01T20:30:58.139Z,4.73
2018-09-01T20:33:29.755Z,4.63
2018-09-01T20:35:59.315Z,6.80
2018-09-01T20:38:30.786Z,10.20
2018-09-01T20:41:01.726Z,5.67
2018-09-01T20:43:30.634Z,6.93
2018-09-01T20:46:02.308Z,9.50
2018-09-01T20:48:34.192Z,5.83
2018-09-01T20:51:05.732Z,7.07
2018-09-01T20:53:37.693Z,7.63
2018-09-01T20:56:09.708Z,7.00
2018-09-01T20:58:42.038Z,8.73
2018-09-01T21:01:13.988Z,5.53
2018-09-01T21:03:45.150Z,4.77
2018-09-01T21:06:16.719Z,5.33
2018-09-01T21:08:47.961Z,6.70
2018-09-01T21:11:17.463Z,5.13
2018-09-01T21:13:47.172Z,6.37
2018-09-01T21:16:17.461Z,6.03
2018-09-01T21:18:51.345Z,8.83
2018-09-01T21:21:21.589Z,6.00
2018-09-01T21:23:50.385Z,9.03
2018-09-01T21:26:21.134Z,6.93
2018-09-01T21:28:52.431Z,11.73
2018-09-01T21:31:23.351Z,5.90
2018-09-01T21:33:52.294Z,6.53
2018-09-01T21:36:22.777Z,5.80
2018-09-01T21:38:53.775Z,8.53
2018-09-01T21:41:24.084Z,5.90
2018-09-01T21:43:56.132Z,8.40
2018-09-01T21:46:27.819Z,7.40
2018-09-01T21:49:00.088Z,8.00
2018-09-01T21:51:31.900Z,6.57
2018-09-01T21:54:02.380Z,8.17
2018-09-01T21:56:32.999Z,7.87
2018-09-01T21:59:03.902Z,7.30
2018-09-01T22:01:34.030Z,10.03
2018-09-01T22:04:04.109Z,8.13
2018-09-01T22:06:36.113Z,10.27
2018-09-01T22:09:06.571Z,6.47
2018-09-01T22:11:37.099Z,5.63
2018-09-01T22:14:08.164Z,6.73
2018-09-01T22:16:37.023Z,8.17
2018-09-01T22:19:07.664Z,7.07
2018-09-01T22:21:37.888Z,5.83
2018-09-01T22:24:08.711Z,6.47
2018-09-01T22:26:39.266Z,7.97
2018-09-01T22:29:10.739Z,9.60
2018-09-01T22:31:46.096Z,7.73
2018-09-01T22:34:18.391Z,7.17
2018-09-01T22:36:50.761Z,7.80
2018-09-01T22:39:22.256Z,7.73
2018-09-01T22:41:53.098Z,10.70
2018-09-01T22:44:24.227Z,11.23
2018-09-01T22:46:57.350Z,14.87
2018-09-01T22:49:28.626Z,8.60
2018-09-01T22:51:59.128Z,9.50
2018-09-01T23:20:24.547Z,8.40
2018-09-01T23:48:50.436Z,18.73
